createdAt,value
2019-05-01T12:40:10.944Z,49.40
2019-05-01T12:42:39.892Z,53.02
2019-05-01T12:45:13.099Z,52.78
2019-05-01T12:47:45.688Z,50.75
2019-05-01T12:50:15.189Z,53.95
2019-05-01T12:52:47.727Z,51.75
2019-05-01T12:55:24.686Z,51.42
2019-05-01T12:57:56.923Z,51.60
2019-05-01T13:00:40.469Z,51.98
2019-05-01T13:03:12.602Z,53.08
2019-05-01T13:05:44.551Z,52.33
2019-05-01T13:08:15.248Z,52.70
2019-05-01T13:10:45.930Z,54.63
2019-05-01T13:13:16.900Z,54.33
2019-05-01T13:15:46.440Z,51.77
2019-05-01T13:18:15.847Z,49.77
2019-05-01T13:20:44.680Z,53.17
2019-05-01T13:23:13.367Z,52.78
2019-05-01T13:25:42.538Z,53.15
2019-05-01T13:28:29.436Z,51.73
2019-05-01T13:31:08.930Z,50.70
2019-05-01T13:33:38.678Z,50.98
2019-05-01T13:36:07.391Z,52.27
2019-05-01T13:38:36.076Z,54.70
2019-05-01T13:41:05.038Z,53.02
2019-05-01T13:43:33.831Z,52.03
2019-05-01T13:46:02.589Z,50.10
2019-05-01T13:48:31.293Z,52.80
2019-05-01T13:51:00.105Z,51.68
2019-05-01T13:53:34.696Z,53.48
2019-05-01T13:56:08.506Z,52.13
2019-05-01T13:58:43.465Z,53.23
2019-05-01T14:01:19.320Z,53.50
2019-05-01T14:03:48.471Z,52.43
2019-05-01T14:06:17.225Z,50.75
2019-05-01T14:08:45.841Z,50.08
2019-05-01T14:11:14.653Z,50.83
2019-05-01T14:13:43.391Z,53.38
2019-05-01T14:16:14.343Z,52.35
2019-05-01T14:18:43.450Z,52.08
2019-05-01T14:21:17.577Z,52.53
2019-05-01T14:24:00.267Z,53.42
2019-05-01T14:26:30.165Z,54.93
2019-05-01T14:28:59.705Z,53.75
2019-05-01T14:31:29.040Z,55.70
2019-05-01T14:33:58.657Z,53.80
2019-05-01T14:36:28.039Z,57.05
2019-05-01T14:38:57.458Z,57.17
2019-05-01T14:41:26.988Z,57.35
2019-05-01T14:43:56.609Z,59.33
2019-05-01T14:46:26.154Z,56.30
2019-05-01T14:48:55.646Z,58.63
2019-05-01T14:51:25.156Z,59.75
2019-05-01T14:53:54.789Z,58.80
2019-05-01T14:56:24.262Z,58.87
2019-05-01T14:58:53.801Z,62.17
2019-05-01T15:01:22.979Z,62.73
2019-05-01T15:03:52.110Z,62.25
2019-05-01T15:06:21.225Z,66.62
2019-05-01T15:08:50.620Z,64.90
2019-05-01T15:11:19.824Z,65.28
2019-05-01T15:13:53.526Z,64.95
2019-05-01T15:16:27.228Z,66.07
2019-05-01T15:19:07.054Z,64.60
2019-05-01T15:21:36.265Z,66.95
2019-05-01T15:24:06.176Z,69.85
2019-05-01T15:26:35.308Z,65.62
2019-05-01T15:29:04.926Z,66.87
2019-05-01T15:31:34.165Z,68.07
2019-05-01T15:34:03.531Z,63.90
2019-05-01T15:36:32.158Z,65.95
2019-05-01T15:39:02.110Z,65.72
2019-05-01T15:41:32.444Z,65.45
2019-05-01T15:44:05.789Z,61.83
2019-05-01T15:46:36.189Z,64.60
2019-05-01T15:49:06.833Z,67.60
2019-05-01T15:51:36.779Z,65.22
2019-05-01T15:54:05.532Z,67.72
2019-05-01T15:56:34.319Z,63.35
2019-05-01T15:59:03.098Z,65.05
2019-05-01T16:01:31.882Z,64.35
2019-05-01T16:04:00.650Z,63.92
2019-05-01T16:06:29.419Z,63.73
2019-05-01T16:08:58.216Z,62.80
2019-05-01T16:11:45.077Z,63.63
2019-05-01T16:14:13.949Z,61.50
2019-05-01T16:16:42.708Z,62.90
2019-05-01T16:19:11.501Z,61.85
2019-05-01T16:21:40.341Z,61.37
2019-05-01T16:24:08.989Z,62.27
2019-05-01T16:26:37.753Z,59.48
2019-05-01T16:29:06.839Z,59.63
2019-05-01T16:31:35.628Z,61.73
2019-05-01T16:34:04.400Z,60.88
2019-05-01T16:36:33.085Z,55.83
2019-05-01T16:39:13.307Z,54.85
2019-05-01T16:41:44.049Z,55.08
2019-05-01T16:44:12.881Z,53.83
2019-05-01T16:46:41.712Z,54.25
2019-05-01T16:49:10.524Z,52.15
2019-05-01T16:51:39.141Z,53.98
2019-05-01T16:54:08.915Z,51.80
2019-05-01T16:56:37.853Z,51.20
2019-05-01T16:59:06.753Z,49.55
2019-05-01T17:01:37.233Z,51.73
2019-05-01T17:04:07.618Z,52.23
2019-05-01T17:06:46.787Z,49.08
2019-05-01T17:09:33.469Z,47.10
2019-05-01T17:12:02.310Z,46.58
2019-05-01T17:14:31.812Z,48.33
2019-05-01T17:17:00.707Z,47.15
2019-05-01T17:19:29.572Z,48.55
2019-05-01T17:21:58.487Z,49.88
2019-05-01T17:24:27.267Z,45.55
2019-05-01T17:27:16.136Z,47.43
2019-05-01T17:29:45.635Z,45.12
2019-05-01T17:32:16.074Z,47.13
2019-05-01T17:34:45.999Z,47.13
2019-05-01T17:37:14.773Z,47.05
2019-05-01T17:40:10.023Z,48.58
2019-05-01T17:42:51.592Z,47.40
2019-05-01T17:45:25.164Z,51.98
2019-05-01T17:47:59.583Z,43.87
2019-05-01T17:50:27.856Z,46.88
2019-05-01T17:52:56.550Z,43.73
2019-05-01T17:55:25.336Z,45.48
2019-05-01T17:57:54.093Z,44.53
2019-05-01T18:00:30.524Z,44.48
2019-05-01T18:03:41.900Z,43.70
2019-05-01T18:06:21.347Z,43.73
2019-05-01T18:09:02.451Z,42.55
2019-05-01T18:11:20.748Z,42.27
2019-05-01T18:13:50.400Z,43.85
2019-05-01T18:16:22.279Z,41.80
2019-05-01T18:18:51.037Z,42.48
2019-05-01T18:21:21.973Z,39.10
2019-05-01T18:23:55.553Z,40.88
2019-05-01T18:26:43.460Z,40.33
2019-05-01T18:29:30.185Z,39.13
2019-05-01T18:32:02.923Z,40.80
2019-05-01T18:34:29.421Z,41.23
2019-05-01T18:37:11.546Z,38.50
2019-05-01T18:39:42.310Z,38.28
2019-05-01T18:42:12.760Z,40.98
2019-05-01T18:44:42.509Z,38.17
2019-05-01T18:47:30.080Z,38.88
2019-05-01T18:50:21.640Z,39.15
2019-05-01T18:52:55.673Z,39.20
2019-05-01T18:55:25.964Z,40.43
2019-05-01T18:57:54.865Z,39.85
2019-05-01T19:00:23.931Z,40.15
2019-05-01T19:02:52.963Z,39.55
2019-05-01T19:05:48.277Z,39.98
2019-05-01T19:08:17.364Z,39.70
2019-05-01T19:10:46.189Z,38.60
2019-05-01T19:13:15.091Z,45.85
2019-05-01T19:15:45.154Z,40.00
2019-05-01T19:18:14.193Z,40.03
